Liberty — WDD2088 — position and weather

sailwx.info

Track history (hours):
 
Tides and Currents Weather Stations Pressure Air Temp Water Temp Dewpoint Dewpoint Depression Visibility Wind Speed Wind Dir Waves Ship Positions

Liberty

Owner: HORIZON 82 LEASING LLC, Provo, UT. More information available from US FCC via Universal Licensing System.

Last reported at 2015-Aug-21 22:06 UTC. Time now 2015-Aug-30 05:58 UTC.
Position N 48°27' W 122°31'.
Warning: this ship's position is 8 days out of date.

Length 25 m; draft 2.2 m.

MMSI: 367110770.

Date/timePositionNaut miles runAvg speedWind from/ knotsBaromVisibWave heightAir tempDewpointWater temp
2015-Aug-21 22:06N 48°27' W 122°31'4 7.3
2015-Aug-21 21:33N 48°31' W 122°34'9 9.0
2015-Aug-21 20:33N 48°32' W 122°47'8 7.9
2015-Aug-21 19:32N 48°36' W 122°58'7 7.5
2015-Aug-21 18:33N 48°38' W 123°08'1 0.4
2015-Aug-21 15:29N 48°37' W 123°09'0 0.0
2015-Aug-21 14:29N 48°37' W 123°09'0 0.0
2015-Aug-21 13:23N 48°37' W 123°09'0 0.0
2015-Aug-21 12:29N 48°37' W 123°09'0 0.0
2015-Aug-21 11:23N 48°37' W 123°09'0 0.0
2015-Aug-21 10:29N 48°37' W 123°09'0 0.0
2015-Aug-21 09:23N 48°37' W 123°09'0 0.0
2015-Aug-21 08:05N 48°37' W 123°09'0 0.0
2015-Aug-21 07:23N 48°37' W 123°09'0 0.0
2015-Aug-21 06:29N 48°37' W 123°09'0 0.0
2015-Aug-21 05:29N 48°37' W 123°09'0 0.0
2015-Aug-21 04:23N 48°37' W 123°09'0 0.0
2015-Aug-21 03:29N 48°37' W 123°09'0 0.0
2015-Aug-21 02:29N 48°37' W 123°09'0 0.0
2015-Aug-21 01:32N 48°37' W 123°09'0 0.0
2015-Aug-21 00:29N 48°37' W 123°09'0 0.0
2015-Aug-20 23:32N 48°37' W 123°09'0 0.0
2015-Aug-20 16:29N 48°37' W 123°09'0 0.0
2015-Aug-20 13:23N 48°37' W 123°09'0 0.0
2015-Aug-20 12:23N 48°37' W 123°09'0 0.0
2015-Aug-20 11:29N 48°37' W 123°09'0 0.0
2015-Aug-20 08:29N 48°37' W 123°09'0 0.0
2015-Aug-20 00:18N 48°37' W 123°09'0 0.0
2015-Aug-19 18:33N 48°37' W 123°09'4 2.1
2015-Aug-19 16:25N 48°41' W 123°12'0 0.0
2015-Aug-19 15:04N 48°41' W 123°12'0 0.1
2015-Aug-19 14:28N 48°41' W 123°12'0 0.0
2015-Aug-19 13:25N 48°41' W 123°12'0 0.0
2015-Aug-19 12:28N 48°41' W 123°12'0 0.0
2015-Aug-19 11:16N 48°41' W 123°12'0 0.1
2015-Aug-19 10:31N 48°41' W 123°12'0 0.0
2015-Aug-19 08:28N 48°41' W 123°12'0 0.0
2015-Aug-19 07:31N 48°41' W 123°12'0 0.0
2015-Aug-19 06:22N 48°41' W 123°12'0 0.0
2015-Aug-19 03:31N 48°41' W 123°12'0 0.0
2015-Aug-19 02:19N 48°41' W 123°12'0 0.0
2015-Aug-19 01:25N 48°41' W 123°12'0 0.0
2015-Aug-19 00:22N 48°41' W 123°12'0 0.0
2015-Aug-18 22:10N 48°41' W 123°12'0 0.0
2015-Aug-18 19:10N 48°41' W 123°12'0 0.0
2015-Aug-18 18:16N 48°41' W 123°12'0 0.1
2015-Aug-18 17:30N 48°41' W 123°12'8 8.0
2015-Aug-18 16:31N 48°41' W 122°60'6 0.6
2015-Aug-18 07:15N 48°46' W 122°54'0 0.0
2015-Aug-18 06:27N 48°46' W 122°54'0 0.0
2015-Aug-18 05:30N 48°46' W 122°54'0 0.0
2015-Aug-18 03:33N 48°46' W 122°54'0 0.0
2015-Aug-18 02:33N 48°46' W 122°54'0 0.0
2015-Aug-18 01:24N 48°46' W 122°54'0 0.0
2015-Aug-18 00:30N 48°46' W 122°54'0 0.0
2015-Aug-17 23:27N 48°46' W 122°54'0 0.2
2015-Aug-17 21:33N 48°46' W 122°54'9 9.4
2015-Aug-17 20:33N 48°40' W 122°43'9 9.1
2015-Aug-17 19:34N 48°33' W 122°34'2 2.2
2015-Aug-17 18:27N 48°31' W 122°36'0 0.0
2015-Aug-17 17:33N 48°31' W 122°36'0 0.0
2015-Aug-17 16:33N 48°31' W 122°36'0 0.0
2015-Aug-17 15:33N 48°31' W 122°36'0 0.0
2015-Aug-17 14:33N 48°31' W 122°36'0 0.0
2015-Aug-17 13:33N 48°31' W 122°36'0 0.0
2015-Aug-17 12:33N 48°31' W 122°36'0 0.0
2015-Aug-17 11:33N 48°31' W 122°36'0 0.0
2015-Aug-17 10:33N 48°31' W 122°36'0 0.0
2015-Aug-17 09:33N 48°31' W 122°36'0 0.0
2015-Aug-17 08:27N 48°31' W 122°36'0 0.0
2015-Aug-17 07:33N 48°31' W 122°36'0 0.0
2015-Aug-17 06:21N 48°31' W 122°36'0 0.0
2015-Aug-17 05:21N 48°31' W 122°36'0 0.0
2015-Aug-17 04:33N 48°31' W 122°36'0 0.0
2015-Aug-17 03:33N 48°31' W 122°36'0 0.0
2015-Aug-17 02:33N 48°31' W 122°36'0 0.0
2015-Aug-17 01:33N 48°31' W 122°36'0 0.0
2015-Aug-17 00:33N 48°31' W 122°36'2 2.3
2015-Aug-16 23:33N 48°30' W 122°33'  
2015-Aug-12 07:12N 48°27' W 122°31'0 0.0
2015-Aug-12 05:30N 48°27' W 122°31'0 0.0
2015-Aug-12 03:06N 48°27' W 122°31'0 0.0
2015-Aug-12 02:30N 48°27' W 122°31'0 0.0
2015-Aug-12 01:12N 48°27' W 122°31'0 0.0
2015-Aug-12 00:30N 48°27' W 122°31'0 0.0
2015-Aug-11 23:30N 48°27' W 122°31'0 0.0
2015-Aug-11 22:30N 48°27' W 122°31'  
Track history (hours):
 
Tides and Currents Weather Stations Pressure Air Temp Water Temp Dewpoint Dewpoint Depression Visibility Wind Speed Wind Dir Waves Ship Positions

Liberty

Owner: HORIZON 82 LEASING LLC, Provo, UT. More information available from US FCC via Universal Licensing System.

Last reported at 2015-Aug-21 22:06 UTC. Time now 2015-Aug-30 05:58 UTC.
Position N 48°27' W 122°31'.
Warning: this ship's position is 8 days out of date.

Length 25 m; draft 2.2 m.

MMSI: 367110770.

Date/timePositionNaut miles runAvg speedWind from/ knotsBaromVisibWave heightAir tempDewpointWater temp
2015-Aug-21 22:06N 48°27' W 122°31'4 7.3
2015-Aug-21 21:33N 48°31' W 122°34'9 9.0
2015-Aug-21 20:33N 48°32' W 122°47'8 7.9
2015-Aug-21 19:32N 48°36' W 122°58'7 7.5
2015-Aug-21 18:33N 48°38' W 123°08'1 0.4
2015-Aug-21 15:29N 48°37' W 123°09'0 0.0
2015-Aug-21 14:29N 48°37' W 123°09'0 0.0
2015-Aug-21 13:23N 48°37' W 123°09'0 0.0
2015-Aug-21 12:29N 48°37' W 123°09'0 0.0
2015-Aug-21 11:23N 48°37' W 123°09'0 0.0
2015-Aug-21 10:29N 48°37' W 123°09'0 0.0
2015-Aug-21 09:23N 48°37' W 123°09'0 0.0
2015-Aug-21 08:05N 48°37' W 123°09'0 0.0
2015-Aug-21 07:23N 48°37' W 123°09'0 0.0
2015-Aug-21 06:29N 48°37' W 123°09'0 0.0
2015-Aug-21 05:29N 48°37' W 123°09'0 0.0
2015-Aug-21 04:23N 48°37' W 123°09'0 0.0
2015-Aug-21 03:29N 48°37' W 123°09'0 0.0
2015-Aug-21 02:29N 48°37' W 123°09'0 0.0
2015-Aug-21 01:32N 48°37' W 123°09'0 0.0
2015-Aug-21 00:29N 48°37' W 123°09'0 0.0
2015-Aug-20 23:32N 48°37' W 123°09'0 0.0
2015-Aug-20 16:29N 48°37' W 123°09'0 0.0
2015-Aug-20 13:23N 48°37' W 123°09'0 0.0
2015-Aug-20 12:23N 48°37' W 123°09'0 0.0
2015-Aug-20 11:29N 48°37' W 123°09'0 0.0
2015-Aug-20 08:29N 48°37' W 123°09'0 0.0
2015-Aug-20 00:18N 48°37' W 123°09'0 0.0
2015-Aug-19 18:33N 48°37' W 123°09'4 2.1
2015-Aug-19 16:25N 48°41' W 123°12'0 0.0
2015-Aug-19 15:04N 48°41' W 123°12'0 0.1
2015-Aug-19 14:28N 48°41' W 123°12'0 0.0
2015-Aug-19 13:25N 48°41' W 123°12'0 0.0
2015-Aug-19 12:28N 48°41' W 123°12'0 0.0
2015-Aug-19 11:16N 48°41' W 123°12'0 0.1
2015-Aug-19 10:31N 48°41' W 123°12'0 0.0
2015-Aug-19 08:28N 48°41' W 123°12'0 0.0
2015-Aug-19 07:31N 48°41' W 123°12'0 0.0
2015-Aug-19 06:22N 48°41' W 123°12'0 0.0
2015-Aug-19 03:31N 48°41' W 123°12'0 0.0
2015-Aug-19 02:19N 48°41' W 123°12'0 0.0
2015-Aug-19 01:25N 48°41' W 123°12'0 0.0
2015-Aug-19 00:22N 48°41' W 123°12'0 0.0
2015-Aug-18 22:10N 48°41' W 123°12'0 0.0
2015-Aug-18 19:10N 48°41' W 123°12'0 0.0
2015-Aug-18 18:16N 48°41' W 123°12'0 0.1
2015-Aug-18 17:30N 48°41' W 123°12'8 8.0
2015-Aug-18 16:31N 48°41' W 122°60'6 0.6
2015-Aug-18 07:15N 48°46' W 122°54'0 0.0
2015-Aug-18 06:27N 48°46' W 122°54'0 0.0
2015-Aug-18 05:30N 48°46' W 122°54'0 0.0
2015-Aug-18 03:33N 48°46' W 122°54'0 0.0
2015-Aug-18 02:33N 48°46' W 122°54'0 0.0
2015-Aug-18 01:24N 48°46' W 122°54'0 0.0
2015-Aug-18 00:30N 48°46' W 122°54'0 0.0
2015-Aug-17 23:27N 48°46' W 122°54'0 0.2
2015-Aug-17 21:33N 48°46' W 122°54'9 9.4
2015-Aug-17 20:33N 48°40' W 122°43'9 9.1
2015-Aug-17 19:34N 48°33' W 122°34'2 2.2
2015-Aug-17 18:27N 48°31' W 122°36'0 0.0
2015-Aug-17 17:33N 48°31' W 122°36'0 0.0
2015-Aug-17 16:33N 48°31' W 122°36'0 0.0
2015-Aug-17 15:33N 48°31' W 122°36'0 0.0
2015-Aug-17 14:33N 48°31' W 122°36'0 0.0
2015-Aug-17 13:33N 48°31' W 122°36'0 0.0
2015-Aug-17 12:33N 48°31' W 122°36'0 0.0
2015-Aug-17 11:33N 48°31' W 122°36'0 0.0
2015-Aug-17 10:33N 48°31' W 122°36'0 0.0
2015-Aug-17 09:33N 48°31' W 122°36'0 0.0
2015-Aug-17 08:27N 48°31' W 122°36'0 0.0
2015-Aug-17 07:33N 48°31' W 122°36'0 0.0
2015-Aug-17 06:21N 48°31' W 122°36'0 0.0
2015-Aug-17 05:21N 48°31' W 122°36'0 0.0
2015-Aug-17 04:33N 48°31' W 122°36'0 0.0
2015-Aug-17 03:33N 48°31' W 122°36'0 0.0
2015-Aug-17 02:33N 48°31' W 122°36'0 0.0
2015-Aug-17 01:33N 48°31' W 122°36'0 0.0
2015-Aug-17 00:33N 48°31' W 122°36'2 2.3
2015-Aug-16 23:33N 48°30' W 122°33'  
2015-Aug-12 07:12N 48°27' W 122°31'0 0.0
2015-Aug-12 05:30N 48°27' W 122°31'0 0.0
2015-Aug-12 03:06N 48°27' W 122°31'0 0.0
2015-Aug-12 02:30N 48°27' W 122°31'0 0.0
2015-Aug-12 01:12N 48°27' W 122°31'0 0.0
2015-Aug-12 00:30N 48°27' W 122°31'0 0.0
2015-Aug-11 23:30N 48°27' W 122°31'0 0.0
2015-Aug-11 22:30N 48°27' W 122°31'  

Dump ship's entire track history